Weather History for Ironwood, MI

Change the Weather History Date:

Friday, June 27, 2014

  Actual Average Record
Temperature  
Mean Temperature 69 °F -  
Max Temperature 78 °F 73 °F 89 °F (1998)
Min Temperature 60 °F 53 °F 42 °F (2004)
Cooling Degree Days 4    
Growing Degree Days 19 (Base 50)    
Moisture  
Dew Point 60 °F    
Average Humidity 73    
Maximum Humidity 83    
Minimum Humidity 61    
Precipitation  
Precipitation 0.00 in - - ()
Sea Level Pressure  
Sea Level Pressure 29.92 in    
Wind  
Wind Speed 9 mph (SSE)    
Max Wind Speed 20 mph    
Max Gust Speed 25 mph    
Visibility 10 miles    
Events      
Averages and records for this station are not official NWS values.
T = Trace of Precipitation, MM = Missing Value Source: NWS Daily Summary

Daily Weather History Graph

Daily Weather History Graph

Search for Another Location

Airport:

Trip Planner

Search our weather history database for the weather conditions in past years. The results will help you decide how hot, cold, wet, or windy it might be!

Date:

Astronomy

Jun. 27, 2014 Rise Set
Actual Time 5:09 AM CDT 8:57 PM CDT
Civil Twilight 4:30 AM CDT 9:36 PM CDT
Nautical Twilight 3:37 AM CDT 10:29 PM CDT
Astronomical Twilight 2:20 AM CDT 11:45 PM CDT
Moon 5:46 AM CDT (6/27) 8:55 PM CDT (6/27)
Length of Visible Light 17h 06m
Length of Day
15h 48m
New Moon, 0% of the Moon is Illuminated
Jun 27
New Moon
Jul 5
First Quarter
Jul 12
Full
Jul 18
Last Quarter
Jul 26
New

Hourly Weather History & Observations

Time (CDT) Temp. Dew Point Humidity Pressure Visibility Wind Dir Wind Speed Gust Speed Precip Events Conditions
12:15 AM 64.4 °F 55.4 °F 73% 29.98 in 10.0 mi SSE 4.6 mph - N/A   Clear
12:35 AM 64.4 °F 55.4 °F 73% 29.99 in 10.0 mi SSE 8.1 mph - N/A   Clear
12:55 AM 64.4 °F 55.4 °F 73% 29.98 in 10.0 mi SSE 8.1 mph - N/A   Clear
1:15 AM 64.4 °F 55.4 °F 73% 29.98 in 10.0 mi SSE 8.1 mph - N/A   Clear
1:35 AM 64.4 °F 55.4 °F 73% 29.98 in 10.0 mi South 6.9 mph - N/A   Clear
1:55 AM 64.4 °F 55.4 °F 73% 29.98 in 10.0 mi SSE 8.1 mph - N/A   Clear
2:15 AM 62.6 °F 55.4 °F 77% 29.98 in 10.0 mi SSE 8.1 mph - N/A   Clear
2:35 AM 62.6 °F 55.4 °F 77% 29.99 in 10.0 mi SE 6.9 mph - N/A   Clear
2:55 AM 62.6 °F 55.4 °F 77% 29.99 in 10.0 mi SE 6.9 mph - N/A   Clear
3:35 AM 60.8 °F 53.6 °F 77% 29.99 in 10.0 mi Calm Calm - N/A   Clear
3:55 AM 60.8 °F 55.4 °F 82% 29.98 in 10.0 mi ESE 8.1 mph - N/A   Clear
4:15 AM 62.6 °F 55.4 °F 77% 29.97 in 10.0 mi SE 8.1 mph - N/A   Clear
4:35 AM 62.6 °F 55.4 °F 77% 29.97 in 10.0 mi SE 9.2 mph - N/A   Clear
4:55 AM 62.6 °F 55.4 °F 77% 29.97 in 10.0 mi SE 9.2 mph - N/A   Clear
5:15 AM 62.6 °F 55.4 °F 77% 29.97 in 10.0 mi ESE 6.9 mph - N/A   Mostly Cloudy
5:35 AM 62.6 °F 55.4 °F 77% 29.97 in 10.0 mi ESE 6.9 mph - N/A   Mostly Cloudy
5:55 AM 62.6 °F 55.4 °F 77% 29.97 in 10.0 mi ESE 6.9 mph - N/A   Mostly Cloudy
6:35 AM 62.6 °F 55.4 °F 77% 29.97 in 10.0 mi SE 6.9 mph - N/A   Overcast
6:55 AM 62.6 °F 55.4 °F 77% 29.98 in 10.0 mi SE 5.8 mph - N/A   Mostly Cloudy
7:15 AM 64.4 °F 55.4 °F 73% 29.97 in 10.0 mi SE 8.1 mph 16.1 mph N/A   Mostly Cloudy
7:35 AM 64.4 °F 55.4 °F 73% 29.96 in 10.0 mi SSE 10.4 mph - N/A   Mostly Cloudy
7:55 AM 64.4 °F 55.4 °F 73% 29.95 in 10.0 mi SSE 9.2 mph 21.9 mph N/A   Mostly Cloudy
8:15 AM 66.2 °F 57.2 °F 73% 29.95 in 10.0 mi SSE 9.2 mph 16.1 mph N/A   Mostly Cloudy
8:35 AM 66.2 °F 57.2 °F 73% 29.95 in 10.0 mi SSE 8.1 mph 18.4 mph N/A   Mostly Cloudy
8:55 AM 69.8 °F 59.0 °F 68% 29.95 in 10.0 mi SSE 9.2 mph 19.6 mph N/A   Mostly Cloudy
9:15 AM 69.8 °F 57.2 °F 64% 29.95 in 10.0 mi SSE 8.1 mph 17.3 mph N/A   Partly Cloudy
9:35 AM 69.8 °F 59.0 °F 68% 29.96 in 10.0 mi South 12.7 mph 19.6 mph N/A   Scattered Clouds
9:55 AM 69.8 °F 57.2 °F 64% 29.96 in 10.0 mi SSE 8.1 mph 16.1 mph N/A   Overcast
10:15 AM 68.0 °F 57.2 °F 68% 29.95 in 10.0 mi SSE 8.1 mph - N/A   Overcast
10:35 AM 68.0 °F 57.2 °F 68% 29.95 in 10.0 mi SSE 9.2 mph - N/A   Mostly Cloudy
10:55 AM 69.8 °F 59.0 °F 68% 29.95 in 10.0 mi SSE 12.7 mph 18.4 mph N/A   Mostly Cloudy
11:15 AM 69.8 °F 59.0 °F 68% 29.95 in 10.0 mi SSE 12.7 mph 23.0 mph N/A   Mostly Cloudy
11:35 AM 69.8 °F 60.8 °F 73% 29.94 in 10.0 mi SSE 11.5 mph 24.2 mph N/A   Mostly Cloudy
11:55 AM 69.8 °F 60.8 °F 73% 29.95 in 10.0 mi SSE 10.4 mph 19.6 mph N/A   Mostly Cloudy
12:15 PM 69.8 °F 60.8 °F 73% 29.94 in 10.0 mi SSE 12.7 mph 19.6 mph N/A   Mostly Cloudy
12:35 PM 69.8 °F 60.8 °F 73% 29.94 in 10.0 mi SSE 9.2 mph 21.9 mph N/A   Overcast
12:55 PM 69.8 °F 60.8 °F 73% 29.93 in 10.0 mi South 10.4 mph 19.6 mph N/A   Overcast
1:15 PM 71.6 °F 62.6 °F 73% 29.92 in 10.0 mi SSE 11.5 mph 16.1 mph N/A   Overcast
1:35 PM 73.4 °F 62.6 °F 69% 29.91 in 10.0 mi SSE 11.5 mph 19.6 mph N/A   Mostly Cloudy
1:55 PM 75.2 °F 62.6 °F 65% 29.90 in 10.0 mi SSE 11.5 mph 17.3 mph N/A   Partly Cloudy
2:15 PM 77.0 °F 62.6 °F 61% 29.89 in 10.0 mi SSE 11.5 mph - N/A   Partly Cloudy
2:35 PM 75.2 °F 62.6 °F 65% 29.89 in 10.0 mi SSE 10.4 mph 16.1 mph N/A   Partly Cloudy
2:55 PM 75.2 °F 62.6 °F 65% 29.90 in 10.0 mi SSE 10.4 mph - N/A   Partly Cloudy
3:35 PM 75.2 °F 62.6 °F 65% 29.89 in 10.0 mi SSE 6.9 mph - N/A   Partly Cloudy
3:55 PM 77.0 °F 64.4 °F 65% 29.88 in 10.0 mi SSE 12.7 mph 17.3 mph N/A   Clear
4:15 PM 78.8 °F 64.4 °F 61% 29.87 in 10.0 mi SSE 8.1 mph 17.3 mph N/A   Partly Cloudy
4:35 PM 78.8 °F 64.4 °F 61% 29.87 in 10.0 mi South 12.7 mph 19.6 mph N/A   Partly Cloudy
4:55 PM 78.8 °F 64.4 °F 61% 29.86 in 10.0 mi SSE 12.7 mph 20.7 mph N/A   Partly Cloudy
5:15 PM 78.8 °F 64.4 °F 61% 29.85 in 10.0 mi South 10.4 mph 20.7 mph N/A   Partly Cloudy
5:35 PM 78.8 °F 64.4 °F 61% 29.84 in 10.0 mi South 18.4 mph 24.2 mph N/A   Partly Cloudy
5:55 PM 78.8 °F 64.4 °F 61% 29.84 in 10.0 mi SSE 12.7 mph 18.4 mph N/A   Partly Cloudy
6:35 PM 77.0 °F 64.4 °F 65% 29.84 in 10.0 mi SSE 13.8 mph 19.6 mph N/A   Partly Cloudy
6:55 PM 77.0 °F 64.4 °F 65% 29.85 in 10.0 mi SE 11.5 mph 19.6 mph N/A   Clear
7:15 PM 75.2 °F 64.4 °F 69% 29.87 in 9.0 mi SSE 19.6 mph 23.0 mph N/A   Scattered Clouds
7:35 PM 73.4 °F 60.8 °F 65% 29.87 in 10.0 mi South 15.0 mph 23.0 mph N/A   Scattered Clouds
7:55 PM 69.8 °F 62.6 °F 78% 29.88 in 10.0 mi South 9.2 mph 18.4 mph N/A   Mostly Cloudy
8:15 PM 68.0 °F 62.6 °F 83% 29.87 in 9.0 mi South 9.2 mph 25.3 mph N/A   Overcast
8:35 PM 68.0 °F 62.6 °F 83% 29.87 in 10.0 mi SSW 13.8 mph 20.7 mph N/A   Overcast
8:55 PM 68.0 °F 62.6 °F 83% 29.87 in 10.0 mi South 10.4 mph 19.6 mph N/A   Overcast
9:15 PM 68.0 °F 62.6 °F 83% 29.87 in 10.0 mi South 10.4 mph 17.3 mph N/A   Overcast
9:35 PM 68.0 °F 62.6 °F 83% 29.87 in 10.0 mi South 10.4 mph 16.1 mph N/A   Overcast
9:55 PM 69.8 °F 64.4 °F 83% 29.88 in 7.0 mi South 9.2 mph 16.1 mph N/A   Mostly Cloudy
10:15 PM 69.8 °F 64.4 °F 83% 29.88 in 10.0 mi SSE 10.4 mph - N/A   Overcast
10:35 PM 69.8 °F 64.4 °F 83% 29.88 in 10.0 mi SE 10.4 mph - N/A   Mostly Cloudy
10:55 PM 69.8 °F 64.4 °F 83% 29.87 in 10.0 mi SE 9.2 mph 18.4 mph N/A   Mostly Cloudy
11:15 PM 69.8 °F 64.4 °F 83% 29.87 in 10.0 mi SSE 8.1 mph - N/A   Mostly Cloudy
11:35 PM 69.8 °F 64.4 °F 83% 29.87 in 10.0 mi SSE 6.9 mph - N/A   Mostly Cloudy
11:55 PM 69.8 °F 64.4 °F 83% 29.87 in 10.0 mi SSE 10.4 mph - N/A   Scattered Clouds